Time;durP1;ratioP1;P1;durP2;ratioP2;P2;SDS_P1;SDS_P2;PMS_P1;PMS_P2;Temp;Humidity;BMP_temperature;BMP_pressure;BME280_temperature;BME280_humidity;BME280_pressure;Samples;Min_cycle;Max_cycle;Signal;HPM_P1;HPM_P2
2023/12/07 00:01:38;;;;;;;0.70;0.70;;;;;;;5.53;100.00;99928.47;4976202;28;20248;-77
2023/12/07 00:04:05;;;;;;;0.70;0.70;;;;;;;6.14;100.00;100027.38;4994643;28;20205;-77
2023/12/07 00:06:31;;;;;;;0.70;0.70;;;;;;;6.26;100.00;100053.53;5005036;28;20224;-77
2023/12/07 00:09:00;;;;;;;0.80;0.80;;;;;;;6.14;100.00;100058.28;5013996;28;20209;-77
2023/12/07 00:11:27;;;;;;;0.90;0.90;;;;;;;5.93;100.00;100029.28;4995549;28;20209;-77
2023/12/07 00:13:54;;;;;;;0.70;0.70;;;;;;;6.01;100.00;100040.69;5013779;28;20204;-77
2023/12/07 00:16:21;;;;;;;0.60;0.60;;;;;;;6.23;100.00;100063.72;4995067;28;20266;-77
2023/12/07 00:18:48;;;;;;;0.80;0.80;;;;;;;6.30;100.00;100062.22;5013445;28;20320;-76
2023/12/07 00:21:14;;;;;;;0.90;0.90;;;;;;;6.31;100.00;100058.81;5013916;28;20668;-77
2023/12/07 00:23:41;;;;;;;1.93;1.90;;;;;;;6.35;100.00;100061.53;5013945;28;20212;-77
2023/12/07 00:26:10;;;;;;;1.00;1.00;;;;;;;6.39;100.00;100063.38;5013570;28;20233;-77
2023/12/07 00:28:37;;;;;;;1.17;1.17;;;;;;;6.23;100.00;100068.88;5010481;28;20212;-77
2023/12/07 00:31:04;;;;;;;0.63;0.63;;;;;;;6.16;100.00;100071.19;5013320;28;20278;-77
2023/12/07 00:33:31;;;;;;;1.83;1.83;;;;;;;6.13;100.00;100082.28;5013507;28;20215;-77
2023/12/07 00:35:58;;;;;;;0.80;0.80;;;;;;;6.14;100.00;100080.56;5013469;28;20205;-77
2023/12/07 00:38:24;;;;;;;1.10;1.10;;;;;;;6.20;100.00;100081.66;5013391;28;20205;-77
2023/12/07 00:40:51;;;;;;;0.90;0.90;;;;;;;5.97;100.00;100044.00;5013606;28;20204;-77
2023/12/07 00:43:19;;;;;;;4.30;1.83;;;;;;;6.15;100.00;100043.69;5013407;28;20209;-77
2023/12/07 00:45:46;;;;;;;2.60;1.70;;;;;;;6.22;100.00;100084.25;5013138;28;20233;-77
2023/12/07 00:48:13;;;;;;;1.67;1.67;;;;;;;6.15;100.00;100085.75;5013207;28;20204;-77
2023/12/07 00:50:39;;;;;;;0.80;0.80;;;;;;;5.98;100.00;100061.19;5013446;28;20208;-77
2023/12/07 00:53:06;;;;;;;0.80;0.80;;;;;;;5.59;100.00;100046.97;5013178;28;20209;-77
2023/12/07 00:55:33;;;;;;;0.90;0.90;;;;;;;5.70;100.00;100076.50;5012411;28;20212;-77
2023/12/07 00:58:01;;;;;;;0.80;0.80;;;;;;;5.44;100.00;100042.16;4994949;28;20217;-77
2023/12/07 01:00:29;;;;;;;1.10;1.10;;;;;;;5.73;100.00;100085.19;4993318;28;20254;-77
2023/12/07 01:02:56;;;;;;;0.80;0.80;;;;;;;5.66;100.00;100085.81;5012520;28;20196;-77
2023/12/07 01:05:23;;;;;;;0.97;0.97;;;;;;;5.29;100.00;100036.47;4978661;28;20323;-77
2023/12/07 01:07:50;;;;;;;0.90;0.90;;;;;;;5.63;100.00;100082.25;5012712;28;20264;-77
2023/12/07 01:10:16;;;;;;;1.43;1.33;;;;;;;5.40;100.00;100084.88;4993211;28;20202;-77
2023/12/07 01:12:43;;;;;;;1.03;1.03;;;;;;;5.29;100.00;100082.75;5009799;28;20209;-77
2023/12/07 01:15:10;;;;;;;0.70;0.70;;;;;;;5.27;100.00;100074.13;4994462;28;20201;-77
2023/12/07 01:17:38;;;;;;;2.80;1.40;;;;;;;5.23;100.00;100078.28;5010066;28;20388;-77
2023/12/07 01:20:11;;;;;;;1.07;1.07;;;;;;;5.21;100.00;100071.34;5011737;28;20615;-78
2023/12/07 01:22:38;;;;;;;0.70;0.70;;;;;;;5.07;100.00;100072.50;5012145;28;20235;-78
2023/12/07 01:25:07;;;;;;;1.83;1.73;;;;;;;4.99;100.00;100082.53;5011989;28;20205;-77
2023/12/07 01:27:33;;;;;;;0.70;0.70;;;;;;;4.82;100.00;100050.19;5012524;28;20204;-77
2023/12/07 01:30:00;;;;;;;2.33;1.63;;;;;;;5.05;100.00;100072.47;4977559;28;20209;-78
2023/12/07 01:32:27;;;;;;;0.80;0.80;;;;;;;5.20;100.00;100067.91;5012818;28;20208;-78
2023/12/07 01:34:55;;;;;;;0.87;0.87;;;;;;;5.12;100.00;100040.16;5010369;28;20215;-78
2023/12/07 01:37:22;;;;;;;0.90;0.90;;;;;;;5.05;100.00;100059.63;5012447;28;20662;-76
2023/12/07 01:39:49;;;;;;;1.20;1.20;;;;;;;5.21;100.00;100076.47;5012172;28;20213;-77
2023/12/07 01:42:16;;;;;;;0.90;0.90;;;;;;;5.08;100.00;100080.28;5011920;28;20204;-77
2023/12/07 01:44:43;;;;;;;0.70;0.70;;;;;;;5.14;100.00;100077.94;5012737;28;20598;-77
2023/12/07 01:47:10;;;;;;;0.80;0.80;;;;;;;5.14;100.00;100077.94;5012363;28;20275;-83
2023/12/07 01:49:38;;;;;;;1.60;1.40;;;;;;;5.12;100.00;100078.69;4977834;28;20209;-77
2023/12/07 01:52:07;;;;;;;0.90;0.90;;;;;;;5.18;100.00;100081.47;5011692;28;20236;-77
2023/12/07 01:54:35;;;;;;;0.80;0.80;;;;;;;5.14;100.00;100075.34;5011543;28;20212;-77
2023/12/07 01:57:02;;;;;;;0.70;0.70;;;;;;;5.19;100.00;100075.53;5011448;28;20196;-77
2023/12/07 01:59:29;;;;;;;1.10;1.10;;;;;;;5.02;100.00;100080.06;5011240;28;20655;-77
2023/12/07 02:01:56;;;;;;;1.80;1.17;;;;;;;5.07;100.00;100068.25;5010983;28;20235;-77
2023/12/07 02:04:23;;;;;;;1.60;1.50;;;;;;;4.94;100.00;100050.66;5012246;28;20845;-76
2023/12/07 02:06:50;;;;;;;0.80;0.80;;;;;;;5.15;100.00;100082.25;5011142;28;20216;-76
2023/12/07 02:09:18;;;;;;;1.53;1.53;;;;;;;5.09;100.00;100096.59;5011751;28;20220;-76
2023/12/07 02:11:45;;;;;;;1.70;1.70;;;;;;;4.99;100.00;100085.09;5011935;28;20205;-76
2023/12/07 02:14:13;;;;;;;0.90;0.90;;;;;;;4.97;100.00;100097.88;5011759;28;20274;-77
2023/12/07 02:16:46;;;;;;;2.03;1.93;;;;;;;5.17;100.00;100090.91;5011387;28;20205;-77
2023/12/07 02:19:34;;;;;;;0.80;0.80;;;;;;;5.22;100.00;100097.06;5010921;28;20251;-77
2023/12/07 02:22:07;;;;;;;0.80;0.80;;;;;;;4.96;100.00;100079.81;5010780;28;21225;-76
2023/12/07 02:24:38;;;;;;;1.40;1.40;;;;;;;4.86;100.00;100099.16;5011767;28;20209;-76
2023/12/07 02:27:07;;;;;;;1.10;1.10;;;;;;;4.93;100.00;100097.69;5011201;28;20228;-77
2023/12/07 02:29:33;;;;;;;0.93;0.93;;;;;;;4.89;100.00;100103.53;5011804;28;20201;-77
2023/12/07 02:32:00;;;;;;;0.70;0.70;;;;;;;4.83;100.00;100103.31;5011413;28;20201;-77
2023/12/07 02:34:27;;;;;;;3.80;1.50;;;;;;;4.67;100.00;100101.88;5011561;28;20621;-76
2023/12/07 02:36:57;;;;;;;1.10;1.10;;;;;;;4.65;100.00;100103.47;5011616;28;20213;-76
2023/12/07 02:39:24;;;;;;;1.30;1.30;;;;;;;4.46;100.00;100070.19;5011160;28;20201;-76
2023/12/07 02:41:53;;;;;;;1.07;1.07;;;;;;;4.75;100.00;100092.75;5011048;28;21014;-77
2023/12/07 02:44:21;;;;;;;1.40;1.40;;;;;;;4.68;100.00;100071.91;5010924;28;20688;-77
2023/12/07 02:46:49;;;;;;;0.80;0.80;;;;;;;4.93;100.00;100110.53;5011095;28;20234;-77
2023/12/07 02:49:16;;;;;;;0.80;0.80;;;;;;;4.94;100.00;100113.19;5010800;28;20201;-76
2023/12/07 02:51:42;;;;;;;0.70;0.70;;;;;;;4.71;100.00;100108.00;5009002;28;20196;-76
2023/12/07 02:54:09;;;;;;;0.80;0.80;;;;;;;4.75;100.00;100114.97;4992421;28;20201;-77
2023/12/07 02:56:36;;;;;;;0.70;0.70;;;;;;;3.92;100.00;99981.72;5010440;28;20200;-76
2023/12/07 02:59:03;;;;;;;0.90;0.90;;;;;;;4.45;100.00;100089.88;5011046;28;20197;-77
2023/12/07 03:01:31;;;;;;;0.80;0.80;;;;;;;4.79;100.00;100121.97;5010681;28;20203;-77
2023/12/07 03:03:58;;;;;;;1.00;1.00;;;;;;;4.78;100.00;100112.56;5010654;28;20282;-77
2023/12/07 03:06:25;;;;;;;1.00;1.00;;;;;;;4.96;100.00;100124.38;5010827;28;20224;-77
2023/12/07 03:08:51;;;;;;;0.90;0.90;;;;;;;4.75;100.00;100128.69;5010601;28;20665;-76
2023/12/07 03:11:17;;;;;;;0.80;0.80;;;;;;;4.65;100.00;100123.16;5010584;28;20205;-77
2023/12/07 03:13:44;;;;;;;0.80;0.80;;;;;;;4.81;100.00;100122.94;5010032;28;20267;-76
2023/12/07 03:16:11;;;;;;;1.10;1.10;;;;;;;4.67;100.00;100130.13;5010698;28;20267;-77
2023/12/07 03:18:39;;;;;;;1.00;1.00;;;;;;;4.75;100.00;100104.69;5010362;28;20228;-76
2023/12/07 03:21:06;;;;;;;0.80;0.80;;;;;;;4.83;100.00;100136.69;5010904;28;20205;-76
2023/12/07 03:23:33;;;;;;;0.90;0.90;;;;;;;4.75;100.00;100120.09;5009983;28;20204;-77
2023/12/07 03:25:59;;;;;;;0.90;0.90;;;;;;;4.81;100.00;100141.81;5010697;28;20216;-77
2023/12/07 03:28:26;;;;;;;0.97;0.97;;;;;;;4.57;100.00;100122.84;5010894;28;20227;-77
2023/12/07 03:30:53;;;;;;;1.27;1.23;;;;;;;4.60;100.00;100130.69;5010733;28;20645;-76
2023/12/07 03:33:20;;;;;;;0.97;0.97;;;;;;;4.60;100.00;100142.66;5010442;28;20193;-77
2023/12/07 03:35:49;;;;;;;1.40;1.30;;;;;;;4.64;100.00;100147.09;5010537;28;20189;-77
2023/12/07 03:38:16;;;;;;;1.00;1.00;;;;;;;4.58;100.00;100141.69;5010302;28;20197;-77
2023/12/07 03:40:47;;;;;;;0.80;0.80;;;;;;;4.55;100.00;100132.19;5010514;28;20673;-77
2023/12/07 03:43:14;;;;;;;1.27;1.27;;;;;;;4.77;100.00;100154.44;5010180;28;20212;-77
2023/12/07 03:45:41;;;;;;;1.00;1.00;;;;;;;4.65;100.00;100148.81;5010445;28;20208;-77
2023/12/07 03:48:07;;;;;;;0.80;0.80;;;;;;;4.58;100.00;100162.22;5009930;28;20228;-77
2023/12/07 03:50:34;;;;;;;1.00;1.00;;;;;;;4.45;100.00;100150.63;5010354;28;20204;-77
2023/12/07 03:53:02;;;;;;;0.90;0.90;;;;;;;4.34;100.00;100137.34;5010359;28;20197;-77
2023/12/07 03:55:29;;;;;;;0.90;0.90;;;;;;;4.11;100.00;100089.34;5010455;28;20263;-77
2023/12/07 03:57:56;;;;;;;1.53;1.43;;;;;;;4.36;100.00;100152.78;5010245;28;20296;-78
2023/12/07 04:00:23;;;;;;;0.87;0.87;;;;;;;4.49;100.00;100158.47;5010839;28;20218;-78
2023/12/07 04:02:49;;;;;;;1.00;1.00;;;;;;;3.10;100.00;99901.47;5010649;28;20591;-78
2023/12/07 04:05:16;;;;;;;0.90;0.90;;;;;;;4.57;100.00;100147.63;4975818;28;20653;-78
2023/12/07 04:07:43;;;;;;;0.87;0.87;;;;;;;4.52;100.00;100137.22;5010017;28;20283;-78
2023/12/07 04:10:12;;;;;;;1.70;1.70;;;;;;;4.58;100.00;100141.69;5010704;28;20205;-78
2023/12/07 04:12:39;;;;;;;0.80;0.80;;;;;;;4.50;100.00;100138.81;5007968;28;20197;-78
2023/12/07 04:15:06;;;;;;;0.80;0.80;;;;;;;4.49;100.00;100117.41;5010318;28;20193;-78
2023/12/07 04:17:33;;;;;;;0.80;0.80;;;;;;;4.36;100.00;100096.31;5010127;28;20193;-78
2023/12/07 04:20:00;;;;;;;1.00;1.00;;;;;;;4.43;100.00;100137.69;5010675;28;20236;-79
2023/12/07 04:22:28;;;;;;;0.70;0.70;;;;;;;4.37;100.00;100147.72;5009809;28;20193;-78
2023/12/07 04:24:55;;;;;;;0.80;0.80;;;;;;;4.30;100.00;100156.00;4976172;28;20212;-78
2023/12/07 04:27:23;;;;;;;1.90;1.30;;;;;;;4.40;100.00;100162.38;5010356;28;20636;-78
2023/12/07 04:29:50;;;;;;;1.37;1.37;;;;;;;4.40;100.00;100159.81;4974522;28;20212;-78
2023/12/07 04:32:17;;;;;;;0.83;0.83;;;;;;;4.25;100.00;100139.53;4996106;28;20202;-78
2023/12/07 04:34:44;;;;;;;0.70;0.70;;;;;;;4.10;100.00;100130.34;5013751;28;20209;-78
2023/12/07 04:37:10;;;;;;;1.20;1.20;;;;;;;4.18;100.00;100155.50;4994949;28;20726;-78
2023/12/07 04:39:37;;;;;;;1.03;1.03;;;;;;;4.27;100.00;100165.25;4975607;28;20198;-78
2023/12/07 04:42:04;;;;;;;0.90;0.90;;;;;;;4.07;100.00;100154.16;5012628;28;20282;-77
2023/12/07 04:44:33;;;;;;;0.90;0.90;;;;;;;4.28;100.00;100170.44;4997889;28;20201;-79
2023/12/07 04:46:59;;;;;;;0.70;0.70;;;;;;;4.28;100.00;100173.00;4979223;28;20622;-78
2023/12/07 04:49:26;;;;;;;2.03;1.93;;;;;;;4.25;100.00;100167.75;5013211;28;20212;-78
2023/12/07 04:51:53;;;;;;;1.30;1.30;;;;;;;4.09;100.00;100160.25;4994419;28;20205;-78
2023/12/07 04:54:20;;;;;;;1.07;1.07;;;;;;;3.95;100.00;100161.34;5012981;28;20202;-78
2023/12/07 04:56:47;;;;;;;0.80;0.80;;;;;;;4.12;100.00;100155.25;5013390;28;20243;-78
2023/12/07 04:59:13;;;;;;;1.03;1.03;;;;;;;4.06;100.00;100165.25;5012962;28;20201;-79
2023/12/07 05:01:42;;;;;;;1.20;1.20;;;;;;;4.06;100.00;100142.16;5012945;28;20205;-78
2023/12/07 05:04:08;;;;;;;1.00;1.00;;;;;;;4.15;100.00;100169.88;5012827;28;20254;-79
2023/12/07 05:06:36;;;;;;;1.00;1.00;;;;;;;4.12;100.00;100144.97;5013298;28;20196;-78
2023/12/07 05:09:03;;;;;;;0.70;0.70;;;;;;;4.26;100.00;100169.50;5012564;28;20262;-78
2023/12/07 05:11:30;;;;;;;0.80;0.80;;;;;;;4.33;100.00;100173.19;5011468;28;20600;-78
2023/12/07 05:13:57;;;;;;;1.13;1.13;;;;;;;4.16;100.00;100164.81;5012573;28;20287;-79
2023/12/07 05:16:24;;;;;;;2.03;1.93;;;;;;;4.13;100.00;100172.41;5012967;28;20232;-76
2023/12/07 05:18:52;;;;;;;0.90;0.90;;;;;;;4.15;100.00;100175.00;5012728;28;20306;-78
2023/12/07 05:21:20;;;;;;;1.23;1.23;;;;;;;4.21;100.00;100173.56;5012723;28;20682;-80
2023/12/07 05:23:47;;;;;;;1.53;1.53;;;;;;;4.14;100.00;100153.59;5012477;28;20581;-78
2023/12/07 05:26:14;;;;;;;0.90;0.90;;;;;;;4.18;100.00;100155.50;5012799;28;20204;-80
2023/12/07 05:28:41;;;;;;;0.73;0.73;;;;;;;4.29;100.00;100182.47;5012820;28;20252;-79
2023/12/07 05:31:08;;;;;;;0.80;0.80;;;;;;;4.17;100.00;100194.81;5012274;28;20771;-78
2023/12/07 05:33:35;;;;;;;0.80;0.80;;;;;;;4.03;100.00;100180.53;5012595;28;20208;-80
2023/12/07 05:36:03;;;;;;;1.00;1.00;;;;;;;4.05;100.00;100194.28;5012607;28;20643;-79
2023/12/07 05:38:30;;;;;;;0.90;0.90;;;;;;;3.68;100.00;100157.59;5012582;28;20215;-77
2023/12/07 05:40:56;;;;;;;0.90;0.90;;;;;;;3.85;100.00;100190.00;5012274;28;20680;-76
2023/12/07 05:43:23;;;;;;;2.33;2.27;;;;;;;3.90;100.00;100197.06;5011680;28;20586;-76
2023/12/07 05:45:50;;;;;;;0.90;0.90;;;;;;;4.02;100.00;100203.53;5012503;28;20205;-76
2023/12/07 05:48:17;;;;;;;0.90;0.90;;;;;;;4.05;100.00;100208.78;5012451;28;20228;-77
2023/12/07 05:50:43;;;;;;;1.10;1.10;;;;;;;4.00;100.00;100211.16;5012265;28;20200;-76
2023/12/07 05:53:11;;;;;;;1.67;1.67;;;;;;;4.00;100.00;100221.41;5011794;28;20201;-77
2023/12/07 05:55:40;;;;;;;1.10;1.10;;;;;;;3.94;100.00;100196.38;5011781;28;20200;-77
2023/12/07 05:58:06;;;;;;;1.00;1.00;;;;;;;3.95;100.00;100228.03;5011754;28;20537;-77
2023/12/07 06:00:33;;;;;;;1.40;1.30;;;;;;;3.85;100.00;100220.78;4973404;28;20685;-78
2023/12/07 06:03:00;;;;;;;1.47;1.47;;;;;;;4.13;100.00;100226.28;5009245;28;20271;-75
2023/12/07 06:05:27;;;;;;;0.70;0.70;;;;;;;3.99;100.00;100202.56;5011652;28;20724;-77
2023/12/07 06:07:55;;;;;;;1.10;1.10;;;;;;;3.37;100.00;100122.97;4993769;28;20243;-74
2023/12/07 06:10:23;;;;;;;0.80;0.80;;;;;;;3.96;100.00;100224.66;5009224;28;20205;-75
2023/12/07 06:12:50;;;;;;;1.10;0.97;;;;;;;3.89;100.00;100220.06;5009617;28;20209;-78
2023/12/07 06:15:17;;;;;;;1.20;1.20;;;;;;;4.06;100.00;100228.50;4999649;28;20212;-79
2023/12/07 06:17:44;;;;;;;1.40;1.30;;;;;;;4.06;100.00;100237.09;5011115;28;20216;-82
2023/12/07 06:20:11;;;;;;;1.47;1.40;;;;;;;3.08;100.00;100081.47;4978397;28;20229;-75
2023/12/07 06:22:38;;;;;;;1.83;1.73;;;;;;;3.94;100.00;100236.53;5010156;28;20284;-77
2023/12/07 06:25:08;;;;;;;1.00;1.00;;;;;;;3.79;100.00;100215.34;5005592;28;20213;-76
2023/12/07 06:27:36;;;;;;;0.73;0.73;;;;;;;3.87;100.00;100224.25;4992371;28;20225;-75
2023/12/07 06:30:05;;;;;;;3.23;3.13;;;;;;;3.77;100.00;100246.06;5002804;28;20209;-75
2023/12/07 06:32:32;;;;;;;0.70;0.70;;;;;;;3.68;100.00;100249.88;4996112;28;20570;-75
2023/12/07 06:34:59;;;;;;;0.80;0.80;;;;;;;3.66;100.00;100248.97;5007120;28;20212;-75
2023/12/07 06:37:26;;;;;;;1.07;1.07;;;;;;;3.63;100.00;100226.63;5005051;28;20216;-75
2023/12/07 06:39:53;;;;;;;1.47;1.40;;;;;;;3.39;100.00;100203.31;5013552;28;20212;-75
2023/12/07 06:42:19;;;;;;;0.80;0.80;;;;;;;3.54;100.00;100239.03;5013833;28;20209;-76
2023/12/07 06:44:49;;;;;;;1.00;1.00;;;;;;;3.67;100.00;100245.59;5010238;28;20211;-76
2023/12/07 06:47:16;;;;;;;0.90;0.90;;;;;;;3.90;100.00;100239.78;5008378;28;20315;-75
2023/12/07 06:49:43;;;;;;;1.10;1.10;;;;;;;3.88;100.00;100243.97;4999444;28;20204;-75
2023/12/07 06:52:10;;;;;;;0.70;0.70;;;;;;;4.00;100.00;100236.81;5009220;28;20208;-76
2023/12/07 06:54:38;;;;;;;0.90;0.90;;;;;;;3.71;100.00;100242.38;5013625;28;20204;-74
2023/12/07 06:57:06;;;;;;;2.07;2.00;;;;;;;3.74;100.00;100247.63;5005252;28;20204;-74
2023/12/07 06:59:33;;;;;;;1.10;1.10;;;;;;;3.81;100.00;100250.53;5010201;28;20199;-74
2023/12/07 07:02:02;;;;;;;0.90;0.90;;;;;;;4.03;100.00;100247.22;5015814;28;20704;-75
2023/12/07 07:04:29;;;;;;;0.97;0.97;;;;;;;3.90;100.00;100258.63;5007085;28;20208;-75
2023/12/07 07:06:56;;;;;;;1.07;1.07;;;;;;;4.09;100.00;100255.16;5005357;28;20228;-76
2023/12/07 07:09:23;;;;;;;1.20;1.20;;;;;;;3.90;100.00;100260.31;4988355;28;20208;-74
2023/12/07 07:11:50;;;;;;;1.00;1.00;;;;;;;3.82;100.00;100236.00;5000657;28;20213;-74
2023/12/07 07:14:17;;;;;;;0.90;0.90;;;;;;;3.92;100.00;100263.81;5009368;28;20274;-76
2023/12/07 07:16:44;;;;;;;2.37;2.27;;;;;;;3.82;100.00;100271.91;5010370;28;20212;-74
2023/12/07 07:19:12;;;;;;;0.90;0.90;;;;;;;3.99;100.00;100271.84;5005192;28;20229;-76
2023/12/07 07:21:39;;;;;;;0.90;0.90;;;;;;;3.82;100.00;100267.66;5003910;28;20212;-74
2023/12/07 07:24:07;;;;;;;2.60;2.40;;;;;;;3.95;100.00;100271.66;5003757;28;20710;-75
2023/12/07 07:26:33;;;;;;;0.93;0.93;;;;;;;3.90;100.00;100253.50;4963198;28;20224;-75
2023/12/07 07:29:00;;;;;;;0.90;0.90;;;;;;;3.77;100.00;100255.44;4994431;28;20221;-74
2023/12/07 07:31:27;;;;;;;1.00;1.00;;;;;;;3.90;100.00;100278.25;4996836;28;20211;-75
2023/12/07 07:33:54;;;;;;;1.20;1.20;;;;;;;3.93;100.00;100283.50;5002451;28;20220;-75
2023/12/07 07:36:22;;;;;;;0.70;0.70;;;;;;;4.00;100.00;100282.97;4991412;28;20208;-75
2023/12/07 07:38:49;;;;;;;0.80;0.80;;;;;;;3.87;100.00;100285.81;5003862;28;20607;-74
2023/12/07 07:41:15;;;;;;;0.80;0.80;;;;;;;3.85;100.00;100287.44;4989159;28;20240;-75
2023/12/07 07:43:42;;;;;;;0.70;0.70;;;;;;;3.89;100.00;100294.44;5003175;28;20200;-75
2023/12/07 07:46:09;;;;;;;1.03;1.03;;;;;;;4.03;100.00;100293.41;5003955;28;20579;-74
2023/12/07 07:48:37;;;;;;;0.80;0.80;;;;;;;4.06;100.00;100293.53;5008264;28;20781;-76
2023/12/07 07:51:04;;;;;;;0.80;0.80;;;;;;;4.04;100.00;100279.72;5009808;28;20209;-74
2023/12/07 07:53:32;;;;;;;1.10;1.10;;;;;;;3.81;100.00;100259.91;4991301;28;20212;-75
2023/12/07 07:55:59;;;;;;;1.00;1.00;;;;;;;3.73;100.00;100307.41;5010201;28;20205;-74
2023/12/07 07:58:25;;;;;;;1.70;1.70;;;;;;;3.86;100.00;100302.00;5009755;28;20216;-76
2023/12/07 08:00:52;;;;;;;0.97;0.97;;;;;;;3.88;100.00;100303.84;5009761;28;20227;-76
2023/12/07 08:03:19;;;;;;;0.70;0.70;;;;;;;3.94;100.00;100310.94;4991022;28;20236;-76
2023/12/07 08:05:46;;;;;;;0.70;0.70;;;;;;;4.03;100.00;100308.78;5012943;28;20205;-74
2023/12/07 08:08:12;;;;;;;0.80;0.80;;;;;;;4.04;100.00;100310.53;4979395;28;20318;-76
2023/12/07 08:10:41;;;;;;;0.70;0.70;;;;;;;3.73;100.00;100281.75;5000035;28;20305;-76
2023/12/07 08:13:08;;;;;;;0.83;0.83;;;;;;;3.90;100.00;100306.47;5008783;28;20270;-75
2023/12/07 08:15:35;;;;;;;0.80;0.80;;;;;;;3.88;100.00;100311.53;4979553;28;20296;-77
2023/12/07 08:18:02;;;;;;;0.83;0.83;;;;;;;4.08;100.00;100307.28;5013593;28;20209;-74
2023/12/07 08:20:28;;;;;;;1.47;1.47;;;;;;;4.13;100.00;100316.06;5013912;28;20302;-74
2023/12/07 08:22:55;;;;;;;0.97;0.97;;;;;;;3.85;100.00;100277.19;5013571;28;20197;-75
2023/12/07 08:25:22;;;;;;;1.63;1.63;;;;;;;3.87;100.00;100271.31;5002865;28;20272;-74
2023/12/07 08:27:50;;;;;;;0.80;0.80;;;;;;;4.26;100.00;100318.34;5011263;28;20216;-75
2023/12/07 08:30:18;;;;;;;1.40;1.40;;;;;;;4.00;100.00;100318.88;5013390;28;20209;-75
2023/12/07 08:32:45;;;;;;;1.00;1.00;;;;;;;3.79;100.00;100312.78;5013705;28;20665;-75
2023/12/07 08:35:12;;;;;;;0.90;0.90;;;;;;;3.85;100.00;100302.84;5014026;28;20601;-75
2023/12/07 08:37:39;;;;;;;0.80;0.80;;;;;;;4.09;100.00;100319.31;5013647;28;20681;-75
2023/12/07 08:40:07;;;;;;;0.97;0.97;;;;;;;4.18;100.00;100326.50;5013894;28;20228;-75
2023/12/07 08:42:34;;;;;;;1.73;1.63;;;;;;;4.06;100.00;100328.56;4979282;28;20646;-75
2023/12/07 08:45:02;;;;;;;0.80;0.80;;;;;;;3.83;100.00;100320.69;5013556;28;20697;-75
2023/12/07 08:47:31;;;;;;;1.33;1.33;;;;;;;3.85;100.00;100313.94;5013748;28;20240;-74
2023/12/07 08:49:58;;;;;;;0.80;0.80;;;;;;;4.03;100.00;100313.03;5013866;28;20203;-74
2023/12/07 08:52:25;;;;;;;0.80;0.80;;;;;;;3.95;100.00;100315.25;5013646;28;20204;-74
2023/12/07 08:54:51;;;;;;;0.90;0.90;;;;;;;3.86;100.00;100314.81;4979276;28;20236;-74
2023/12/07 08:57:19;;;;;;;0.60;0.60;;;;;;;3.87;100.00;100288.38;5013475;28;20205;-74
2023/12/07 08:59:46;;;;;;;0.80;0.80;;;;;;;4.13;100.00;100308.38;5013461;28;20205;-73
2023/12/07 09:02:14;;;;;;;0.93;0.93;;;;;;;4.21;100.00;100309.56;4975746;28;20207;-78
2023/12/07 09:04:41;;;;;;;0.80;0.80;;;;;;;4.14;100.00;100316.97;4993632;28;20202;-74
2023/12/07 09:07:09;;;;;;;0.90;0.90;;;;;;;4.16;100.00;100308.50;4997269;28;20673;-76
2023/12/07 09:09:36;;;;;;;0.90;0.90;;;;;;;3.97;100.00;100308.50;5013304;28;20252;-74
2023/12/07 09:12:03;;;;;;;1.53;1.43;;;;;;;3.92;100.00;100279.22;5013195;28;20673;-77
2023/12/07 09:14:29;;;;;;;0.80;0.80;;;;;;;4.45;100.00;100309.78;5012964;28;20232;-75
2023/12/07 09:16:56;;;;;;;0.80;0.80;;;;;;;4.33;100.00;100315.25;5013374;28;20537;-75
2023/12/07 09:19:24;;;;;;;0.70;0.70;;;;;;;4.27;100.00;100319.25;5013594;28;20228;-77
2023/12/07 09:21:51;;;;;;;0.80;0.80;;;;;;;2.90;100.00;100045.69;4978369;28;20673;-76
2023/12/07 09:24:19;;;;;;;0.77;0.77;;;;;;;4.38;100.00;100307.75;5013470;28;20207;-76
2023/12/07 09:26:46;;;;;;;0.93;0.93;;;;;;;4.50;100.00;100309.13;5013181;28;20226;-78
2023/12/07 09:29:12;;;;;;;1.00;1.00;;;;;;;4.25;100.00;100313.16;5016850;28;20239;-78
2023/12/07 09:31:39;;;;;;;0.70;0.70;;;;;;;4.15;100.00;100313.56;4986759;28;20212;-78
2023/12/07 09:34:08;;;;;;;0.80;0.80;;;;;;;4.41;100.00;100310.44;5011403;28;20205;-75
2023/12/07 09:36:36;;;;;;;0.73;0.73;;;;;;;4.55;100.00;100313.59;5016630;28;20203;-75
2023/12/07 09:39:03;;;;;;;0.70;0.70;;;;;;;4.50;100.00;100311.72;5010768;28;20205;-77
2023/12/07 09:41:30;;;;;;;1.47;1.47;;;;;;;4.42;100.00;100310.50;4976894;28;20201;-77
2023/12/07 09:43:57;;;;;;;0.80;0.80;;;;;;;4.30;100.00;100302.28;5012349;28;20197;-75
2023/12/07 09:46:24;;;;;;;0.70;0.70;;;;;;;4.26;100.00;100309.78;5012549;28;20629;-78
2023/12/07 09:48:51;;;;;;;0.70;0.70;;;;;;;4.33;100.00;100314.38;5013530;28;20221;-77
2023/12/07 09:51:19;;;;;;;1.27;1.27;;;;;;;4.42;100.00;100315.63;5012557;28;20201;-77
2023/12/07 09:53:50;;;;;;;1.10;1.10;;;;;;;4.53;100.00;100310.09;5012642;28;20205;-76
2023/12/07 09:56:17;;;;;;;0.60;0.60;;;;;;;4.45;100.00;100294.38;4977666;28;20228;-78
2023/12/07 09:58:44;;;;;;;0.70;0.70;;;;;;;4.48;100.00;100299.63;5023119;28;20204;-74
2023/12/07 10:01:13;;;;;;;0.83;0.83;;;;;;;4.22;100.00;100305.31;5031982;28;20569;-75
2023/12/07 10:03:40;;;;;;;0.90;0.90;;;;;;;4.07;100.00;100269.59;5010828;28;20231;-76
2023/12/07 10:06:07;;;;;;;0.90;0.90;;;;;;;4.52;100.00;100305.75;5004778;28;20220;-76
2023/12/07 10:08:37;;;;;;;1.00;1.00;;;;;;;4.26;100.00;100287.56;5008850;28;20233;-76
2023/12/07 10:11:09;;;;;;;1.00;1.00;;;;;;;4.54;100.00;100293.84;5011787;28;20209;-75
2023/12/07 10:13:37;;;;;;;1.20;1.20;;;;;;;4.22;100.00;100301.06;5003574;28;20251;-76
2023/12/07 10:16:12;;;;;;;0.70;0.70;;;;;;;4.28;100.00;100296.19;4978043;28;20201;-76
2023/12/07 10:18:40;;;;;;;0.90;0.90;;;;;;;4.15;100.00;100282.75;4997215;28;20233;-76
2023/12/07 10:21:09;;;;;;;2.13;2.13;;;;;;;3.83;100.00;100256.59;4992288;28;20216;-76
2023/12/07 10:23:36;;;;;;;0.90;0.90;;;;;;;4.19;100.00;100290.66;5010458;28;20197;-77
2023/12/07 10:26:03;;;;;;;0.80;0.80;;;;;;;4.21;100.00;100289.03;5011458;28;20220;-74
2023/12/07 10:28:31;;;;;;;0.97;0.97;;;;;;;4.37;100.00;100286.34;5010949;28;20228;-73
2023/12/07 10:30:59;;;;;;;0.77;0.77;;;;;;;4.42;100.00;100286.53;5011317;28;20700;-74
2023/12/07 10:33:27;;;;;;;1.00;1.00;;;;;;;4.32;100.00;100258.69;5010898;28;20243;-73
2023/12/07 10:35:54;;;;;;;0.80;0.80;;;;;;;4.57;100.00;100291.41;5011600;28;20220;-76
2023/12/07 10:38:21;;;;;;;0.77;0.77;;;;;;;4.54;100.00;100281.03;5005690;28;20259;-78
2023/12/07 10:40:50;;;;;;;0.90;0.90;;;;;;;4.49;100.00;100294.53;5011700;28;20289;-75
2023/12/07 10:43:20;;;;;;;0.80;0.80;;;;;;;4.23;100.00;100282.31;5006846;28;20315;-76
2023/12/07 10:45:48;;;;;;;0.90;0.90;;;;;;;4.10;100.00;100280.03;5011161;28;20197;-77
2023/12/07 10:48:15;;;;;;;1.03;1.00;;;;;;;4.08;100.00;100255.09;5011504;28;20224;-75
2023/12/07 10:50:44;;;;;;;1.03;1.03;;;;;;;4.25;100.00;100279.78;5011233;28;20204;-74
2023/12/07 10:53:19;;;;;;;0.80;0.80;;;;;;;4.30;100.00;100274.06;4992622;28;20784;-76
2023/12/07 10:55:53;;;;;;;0.80;0.80;;;;;;;4.32;100.00;100269.84;5010880;28;20196;-75
2023/12/07 10:58:20;;;;;;;1.27;1.20;;;;;;;4.14;100.00;100271.63;5010846;28;20232;-75
2023/12/07 11:00:49;;;;;;;0.90;0.90;;;;;;;4.31;100.00;100274.94;4976970;28;20201;-72
2023/12/07 11:03:17;;;;;;;0.87;0.87;;;;;;;4.19;100.00;100266.69;5010713;28;20216;-74
2023/12/07 11:05:46;;;;;;;1.00;1.00;;;;;;;3.93;100.00;100235.66;5010837;28;20239;-73
2023/12/07 11:08:22;;;;;;;1.10;1.10;;;;;;;4.17;100.00;100270.91;5010915;28;20208;-71
2023/12/07 11:10:59;;;;;;;0.90;0.90;;;;;;;4.06;100.00;100272.13;5010079;28;20671;-71
2023/12/07 11:13:30;;;;;;;0.70;0.70;;;;;;;4.08;100.00;100276.50;4999404;28;20262;-72
2023/12/07 11:15:59;;;;;;;1.23;1.23;;;;;;;4.22;100.00;100269.38;5010470;28;20266;-73
2023/12/07 11:18:26;;;;;;;1.00;1.00;;;;;;;4.14;100.00;100275.91;5010897;28;20192;-72
2023/12/07 11:20:55;;;;;;;0.90;0.90;;;;;;;4.28;100.00;100278.22;5010550;28;20251;-72
2023/12/07 11:23:23;;;;;;;0.80;0.80;;;;;;;3.95;100.00;100258.81;5004635;28;20198;-75
2023/12/07 11:25:50;;;;;;;1.10;1.10;;;;;;;4.01;100.00;100289.88;5002878;28;20212;-74